Time;durP1;ratioP1;P1;durP2;ratioP2;P2;SDS_P1;SDS_P2;PMS_P1;PMS_P2;Temp;Humidity;BMP_temperature;BMP_pressure;BME280_temperature;BME280_humidity;BME280_pressure;Samples;Min_cycle;Max_cycle;Signal;HPM_P1;HPM_P2
2023/06/21 00:00:51;;;;;;;3.00;2.70;;;20.70;99.90;;;;;;4958096;28;20532;-72
2023/06/21 00:03:17;;;;;;;3.97;3.20;;;20.70;99.90;;;;;;4962120;28;20231;-73
2023/06/21 00:05:42;;;;;;;4.93;3.30;;;20.70;99.90;;;;;;4976943;28;20450;-73
2023/06/21 00:08:08;;;;;;;5.30;3.47;;;20.60;99.90;;;;;;4959446;29;20260;-72
2023/06/21 00:10:34;;;;;;;3.37;3.07;;;20.60;99.90;;;;;;4973971;28;20220;-71
2023/06/21 00:13:00;;;;;;;4.90;3.50;;;20.60;99.90;;;;;;4973652;28;20781;-72
2023/06/21 00:15:26;;;;;;;3.30;3.00;;;20.50;99.90;;;;;;4950471;28;20240;-73
2023/06/21 00:17:51;;;;;;;4.20;3.30;;;20.50;99.90;;;;;;4940552;29;20853;-73
2023/06/21 00:20:18;;;;;;;3.40;2.93;;;20.50;99.90;;;;;;4974031;28;20208;-73
2023/06/21 00:22:46;;;;;;;4.50;3.00;;;20.50;99.90;;;;;;4973406;28;20224;-72
2023/06/21 00:25:13;;;;;;;3.70;3.10;;;20.50;99.90;;;;;;4978014;28;20420;-73
2023/06/21 00:27:39;;;;;;;3.57;2.87;;;20.50;99.90;;;;;;4975860;28;20403;-71
2023/06/21 00:30:05;;;;;;;3.07;2.73;;;20.40;99.90;;;;;;4957356;28;20443;-72
2023/06/21 00:32:31;;;;;;;4.67;2.90;;;20.40;99.90;;;;;;4978115;28;20424;-74
2023/06/21 00:34:56;;;;;;;3.10;2.80;;;20.40;99.90;;;;;;4977353;28;20871;-72
2023/06/21 00:37:22;;;;;;;3.10;2.80;;;20.40;99.90;;;;;;4960270;28;20220;-72
2023/06/21 00:39:49;;;;;;;2.83;2.63;;;20.40;99.90;;;;;;4967386;28;20269;-73
2023/06/21 00:42:15;;;;;;;3.43;2.80;;;20.50;99.90;;;;;;4957558;29;20563;-71
2023/06/21 00:44:40;;;;;;;2.87;2.67;;;20.50;99.90;;;;;;4956327;28;20192;-72
2023/06/21 00:47:06;;;;;;;2.77;2.57;;;20.50;99.90;;;;;;4938804;29;20309;-72
2023/06/21 00:49:33;;;;;;;2.90;2.40;;;20.50;99.90;;;;;;4939084;29;20288;-72
2023/06/21 00:51:59;;;;;;;5.63;3.63;;;20.50;99.90;;;;;;4968681;28;20201;-72
2023/06/21 00:54:28;;;;;;;3.47;3.17;;;20.50;99.90;;;;;;4965801;28;20508;-73
2023/06/21 00:56:53;;;;;;;5.57;3.60;;;20.50;99.90;;;;;;4957341;28;20737;-72
2023/06/21 00:59:19;;;;;;;4.13;3.30;;;20.50;99.90;;;;;;4943591;29;20473;-71
2023/06/21 01:01:46;;;;;;;3.60;2.93;;;20.50;99.90;;;;;;4939153;29;20225;-72
2023/06/21 01:04:13;;;;;;;3.87;3.27;;;20.50;99.90;;;;;;4939100;29;20424;-71
2023/06/21 01:06:45;;;;;;;4.27;3.40;;;20.50;99.90;;;;;;4929449;29;20416;-72
2023/06/21 01:09:31;;;;;;;3.00;2.70;;;20.50;99.90;;;;;;4959097;29;20520;-72
2023/06/21 01:12:12;;;;;;;3.23;2.80;;;20.50;99.90;;;;;;4946597;29;20426;-71
2023/06/21 01:14:57;;;;;;;3.40;2.93;;;20.50;99.90;;;;;;4943033;29;20447;-72
2023/06/21 01:17:24;;;;;;;3.10;2.80;;;20.50;99.90;;;;;;4958914;29;20483;-72
2023/06/21 01:19:55;;;;;;;4.50;3.03;;;20.40;99.90;;;;;;4943590;29;20537;-71
2023/06/21 01:22:21;;;;;;;4.23;2.67;;;20.40;99.90;;;;;;4941110;29;20918;-72
2023/06/21 01:25:02;;;;;;;3.57;3.27;;;20.40;99.90;;;;;;4956808;29;20853;-73
2023/06/21 01:27:41;;;;;;;3.83;3.40;;;20.40;99.90;;;;;;4958459;29;20417;-72
2023/06/21 01:30:10;;;;;;;3.80;3.40;;;20.40;99.90;;;;;;4941582;29;20450;-72
2023/06/21 01:32:37;;;;;;;3.37;2.70;;;20.40;99.90;;;;;;4938787;29;20528;-72
2023/06/21 01:35:04;;;;;;;4.30;3.63;;;20.30;99.90;;;;;;4947289;29;20429;-73
2023/06/21 01:37:31;;;;;;;3.63;3.23;;;20.30;99.90;;;;;;4951682;29;20870;-72
2023/06/21 01:39:59;;;;;;;4.37;3.97;;;20.30;99.90;;;;;;4937960;29;20459;-72
2023/06/21 01:42:26;;;;;;;2.90;2.60;;;20.30;99.90;;;;;;4956468;29;20217;-72
2023/06/21 01:44:52;;;;;;;3.10;2.83;;;20.20;99.90;;;;;;4939371;29;20424;-73
2023/06/21 01:47:19;;;;;;;2.93;2.70;;;20.30;99.90;;;;;;4937557;29;20413;-72
2023/06/21 01:49:46;;;;;;;4.07;3.50;;;20.20;99.90;;;;;;4950346;29;20242;-72
2023/06/21 01:52:12;;;;;;;3.67;3.20;;;20.20;99.90;;;;;;4922526;29;20445;-72
2023/06/21 01:54:41;;;;;;;3.53;3.23;;;20.20;99.90;;;;;;4932710;29;20713;-74
2023/06/21 01:57:10;;;;;;;3.23;2.93;;;20.20;99.90;;;;;;4944796;28;20456;-72
2023/06/21 01:59:36;;;;;;;3.43;3.13;;;20.10;99.90;;;;;;4955801;28;20927;-73
2023/06/21 02:02:03;;;;;;;3.93;2.73;;;20.10;99.90;;;;;;4947300;28;20456;-73
2023/06/21 02:04:31;;;;;;;4.13;3.73;;;20.10;99.90;;;;;;4971817;28;20276;-72
2023/06/21 02:06:56;;;;;;;3.27;2.97;;;20.10;99.90;;;;;;4940582;29;20429;-73
2023/06/21 02:09:23;;;;;;;4.50;3.33;;;20.10;99.90;;;;;;4963127;28;20440;-72
2023/06/21 02:11:49;;;;;;;3.67;3.30;;;20.10;99.90;;;;;;4975297;28;20326;-72
2023/06/21 02:14:15;;;;;;;3.17;2.87;;;20.00;99.90;;;;;;4972861;28;20887;-73
2023/06/21 02:16:41;;;;;;;3.07;2.73;;;20.10;99.90;;;;;;4975471;28;20207;-73
2023/06/21 02:19:07;;;;;;;3.77;2.90;;;20.10;99.90;;;;;;4960305;28;20541;-71
2023/06/21 02:21:33;;;;;;;3.63;3.03;;;20.10;99.90;;;;;;4968579;28;20211;-72
2023/06/21 02:23:59;;;;;;;3.73;3.33;;;20.10;99.90;;;;;;4989742;28;20417;-72
2023/06/21 02:26:24;;;;;;;4.03;3.67;;;20.10;99.90;;;;;;4955906;29;20234;-73
2023/06/21 02:28:51;;;;;;;4.40;3.23;;;20.10;99.90;;;;;;4959479;28;20565;-72
2023/06/21 02:31:16;;;;;;;3.03;2.67;;;20.10;99.90;;;;;;4956276;28;20539;-72
2023/06/21 02:33:44;;;;;;;3.07;2.77;;;20.00;99.90;;;;;;4983404;28;20501;-71
2023/06/21 02:36:13;;;;;;;3.07;2.77;;;20.00;99.90;;;;;;4979292;28;20194;-72
2023/06/21 02:38:39;;;;;;;3.60;2.77;;;20.00;99.90;;;;;;4968002;28;20432;-71
2023/06/21 02:41:05;;;;;;;3.50;2.90;;;20.00;99.90;;;;;;4996177;28;20183;-72
2023/06/21 02:43:31;;;;;;;3.20;2.30;;;20.00;99.90;;;;;;4979865;28;20193;-72
2023/06/21 02:45:56;;;;;;;3.20;2.87;;;20.00;99.90;;;;;;4968922;28;20824;-73
2023/06/21 02:48:22;;;;;;;3.30;2.73;;;20.00;99.90;;;;;;4970122;28;20595;-73
2023/06/21 02:50:48;;;;;;;3.20;2.70;;;19.90;99.90;;;;;;4977175;28;20609;-72
2023/06/21 02:53:14;;;;;;;2.90;2.60;;;19.90;99.90;;;;;;4960872;28;20617;-71
2023/06/21 02:55:41;;;;;;;4.23;2.50;;;19.90;99.90;;;;;;4960536;28;20435;-71
2023/06/21 02:58:06;;;;;;;4.07;3.07;;;19.90;99.90;;;;;;4986776;28;20454;-72
2023/06/21 03:00:33;;;;;;;3.53;3.10;;;19.80;99.90;;;;;;4960049;28;20282;-72
2023/06/21 03:03:00;;;;;;;3.83;3.43;;;19.80;99.90;;;;;;4962937;28;20218;-71
2023/06/21 03:05:30;;;;;;;4.87;4.37;;;19.90;99.90;;;;;;4969302;28;20409;-72
2023/06/21 03:07:56;;;;;;;4.40;4.00;;;19.90;99.90;;;;;;4960235;29;20276;-71
2023/06/21 03:10:23;;;;;;;4.60;3.40;;;19.80;99.90;;;;;;4974205;28;20463;-73
2023/06/21 03:12:49;;;;;;;3.90;3.50;;;19.80;99.90;;;;;;4973550;28;20420;-73
2023/06/21 03:15:19;;;;;;;4.60;4.07;;;19.80;99.90;;;;;;4965645;28;20513;-73
2023/06/21 03:17:45;;;;;;;5.10;4.10;;;19.80;99.90;;;;;;4999363;28;20858;-73
2023/06/21 03:20:14;;;;;;;4.63;4.13;;;19.80;99.90;;;;;;4986675;28;20252;-72
2023/06/21 03:22:43;;;;;;;4.77;4.30;;;19.80;99.90;;;;;;4959110;29;20212;-73
2023/06/21 03:25:10;;;;;;;4.90;3.80;;;19.70;99.90;;;;;;4954759;29;20432;-72
2023/06/21 03:27:36;;;;;;;4.50;3.53;;;19.70;99.90;;;;;;4942672;29;20413;-72
2023/06/21 03:30:07;;;;;;;3.93;3.53;;;19.70;99.90;;;;;;4944126;28;20550;-71
2023/06/21 03:32:33;;;;;;;5.80;3.80;;;19.70;99.90;;;;;;4942306;29;20429;-71
2023/06/21 03:34:59;;;;;;;4.67;4.27;;;19.70;99.90;;;;;;4978301;28;20469;-72
2023/06/21 03:37:28;;;;;;;4.73;4.00;;;19.70;99.90;;;;;;4961110;28;20275;-72
2023/06/21 03:39:54;;;;;;;4.20;3.80;;;19.70;99.90;;;;;;4961749;28;20243;-73
2023/06/21 03:42:19;;;;;;;3.70;3.30;;;19.70;99.90;;;;;;4961631;28;20503;-72
2023/06/21 03:44:46;;;;;;;4.27;3.30;;;19.80;99.90;;;;;;4958673;28;20256;-72
2023/06/21 03:47:12;;;;;;;3.13;2.83;;;19.80;99.90;;;;;;4983258;28;20412;-72
2023/06/21 03:49:39;;;;;;;4.00;3.60;;;19.80;99.90;;;;;;4944635;29;20209;-73
2023/06/21 03:52:05;;;;;;;3.50;3.20;;;19.90;99.90;;;;;;4958000;28;20483;-72
2023/06/21 03:54:31;;;;;;;3.93;3.60;;;20.00;99.90;;;;;;4949751;28;20184;-72
2023/06/21 03:56:57;;;;;;;5.57;4.80;;;20.20;99.90;;;;;;4969205;28;20461;-73
2023/06/21 03:59:23;;;;;;;4.90;4.43;;;20.30;99.90;;;;;;4943205;29;20341;-72
2023/06/21 04:01:49;;;;;;;6.00;5.27;;;20.40;99.90;;;;;;4952100;29;20461;-72
2023/06/21 04:04:15;;;;;;;8.10;5.73;;;20.60;99.90;;;;;;4942241;29;20436;-73
2023/06/21 04:06:40;;;;;;;6.27;5.40;;;20.70;99.90;;;;;;4948515;29;20189;-72
2023/06/21 04:09:07;;;;;;;5.17;4.67;;;20.70;99.90;;;;;;4940140;29;20214;-73
2023/06/21 04:11:34;;;;;;;6.07;5.30;;;20.80;99.90;;;;;;4943196;29;20195;-73
2023/06/21 04:13:59;;;;;;;5.70;5.10;;;20.80;99.90;;;;;;4959264;29;20812;-72
2023/06/21 04:16:26;;;;;;;6.93;5.17;;;20.90;99.90;;;;;;4941207;29;20479;-72
2023/06/21 04:18:51;;;;;;;6.03;5.43;;;21.00;99.90;;;;;;4927704;29;20612;-72
2023/06/21 04:21:17;;;;;;;5.43;4.93;;;21.00;99.90;;;;;;4923383;29;20422;-73
2023/06/21 04:23:42;;;;;;;5.63;5.10;;;21.10;99.90;;;;;;4923589;29;20190;-74
2023/06/21 04:26:08;;;;;;;5.23;4.50;;;21.10;99.90;;;;;;4939858;29;20229;-73
2023/06/21 04:28:34;;;;;;;5.87;5.17;;;21.20;99.90;;;;;;4938719;29;20178;-73
2023/06/21 04:31:00;;;;;;;4.77;3.80;;;21.30;99.90;;;;;;4932968;29;20212;-72
2023/06/21 04:33:29;;;;;;;7.03;6.33;;;21.30;99.90;;;;;;4939970;29;20197;-74
2023/06/21 04:35:55;;;;;;;4.93;4.43;;;21.30;99.90;;;;;;4939108;29;20410;-73
2023/06/21 04:38:20;;;;;;;5.93;5.33;;;21.40;99.90;;;;;;4938774;29;20417;-72
2023/06/21 04:40:46;;;;;;;5.20;4.80;;;21.40;99.90;;;;;;4939276;29;20518;-72
2023/06/21 04:43:11;;;;;;;7.67;5.50;;;21.40;99.90;;;;;;4956862;29;20617;-73
2023/06/21 04:45:37;;;;;;;5.20;4.70;;;21.50;99.90;;;;;;4948254;29;20205;-73
2023/06/21 04:48:04;;;;;;;5.50;4.90;;;21.50;99.90;;;;;;4949384;29;20189;-75
2023/06/21 04:50:30;;;;;;;5.73;5.13;;;21.60;99.90;;;;;;4957988;29;20224;-73
2023/06/21 04:52:59;;;;;;;6.20;4.90;;;21.90;99.90;;;;;;4941599;29;20449;-74
2023/06/21 04:55:26;;;;;;;5.70;5.20;;;22.20;99.90;;;;;;4952734;29;20512;-72
2023/06/21 04:57:52;;;;;;;6.10;5.47;;;22.70;99.90;;;;;;4969581;28;20459;-73
2023/06/21 05:00:18;;;;;;;5.17;4.67;;;23.10;99.90;;;;;;4969145;28;20449;-74
2023/06/21 05:02:44;;;;;;;5.50;5.00;;;23.40;99.10;;;;;;4955816;28;20259;-73
2023/06/21 05:05:09;;;;;;;10.10;8.77;;;23.50;98.40;;;;;;4983422;28;20420;-73
2023/06/21 05:07:37;;;;;;;5.90;5.40;;;23.60;96.70;;;;;;4964688;28;20193;-73
2023/06/21 05:10:06;;;;;;;7.60;5.80;;;23.70;95.80;;;;;;4962631;28;20239;-73
2023/06/21 05:12:31;;;;;;;7.20;6.50;;;23.70;94.30;;;;;;4963222;29;20428;-74
2023/06/21 05:14:57;;;;;;;5.47;5.00;;;23.60;94.90;;;;;;4958915;29;20699;-74
2023/06/21 05:17:22;;;;;;;6.97;6.27;;;23.90;94.90;;;;;;4964024;28;20208;-73
2023/06/21 05:19:48;;;;;;;6.10;5.50;;;24.20;93.10;;;;;;4963569;28;20656;-75
2023/06/21 05:22:14;;;;;;;6.67;5.97;;;24.60;90.80;;;;;;4964121;28;20323;-75
2023/06/21 05:24:40;;;;;;;9.50;6.50;;;24.90;86.70;;;;;;4964520;29;20405;-73
2023/06/21 05:27:06;;;;;;;8.67;6.33;;;25.30;81.00;;;;;;4965352;29;20168;-74
2023/06/21 05:29:31;;;;;;;6.43;5.83;;;25.40;77.10;;;;;;4947579;28;20237;-74
2023/06/21 05:31:57;;;;;;;6.07;5.53;;;25.70;76.10;;;;;;4974098;28;20420;-75
2023/06/21 05:34:22;;;;;;;7.00;6.33;;;25.90;72.90;;;;;;4964698;29;20605;-72
2023/06/21 05:36:48;;;;;;;6.97;5.70;;;26.20;70.90;;;;;;4983582;28;20200;-75
2023/06/21 05:39:13;;;;;;;7.20;5.50;;;26.40;68.20;;;;;;4966785;28;20239;-75
2023/06/21 05:41:39;;;;;;;6.33;5.17;;;26.40;67.10;;;;;;4954037;29;20225;-76
2023/06/21 05:44:05;;;;;;;6.70;5.93;;;26.20;67.80;;;;;;4955604;28;20173;-77
2023/06/21 05:46:30;;;;;;;6.77;5.43;;;26.20;68.60;;;;;;4951984;28;20513;-74
2023/06/21 05:48:56;;;;;;;6.47;5.87;;;26.20;68.40;;;;;;4970066;28;20216;-76
2023/06/21 05:51:22;;;;;;;7.20;6.50;;;26.10;68.00;;;;;;4985956;28;20164;-76
2023/06/21 05:53:48;;;;;;;6.57;5.97;;;26.10;67.50;;;;;;4968238;28;20438;-74
2023/06/21 05:56:13;;;;;;;6.40;5.63;;;26.10;68.00;;;;;;4987086;28;20165;-76
2023/06/21 05:58:39;;;;;;;7.03;6.33;;;26.00;67.90;;;;;;4962562;28;20257;-73
2023/06/21 06:01:04;;;;;;;7.93;7.00;;;26.00;68.20;;;;;;4928815;29;20569;-74
2023/06/21 06:03:30;;;;;;;9.20;7.97;;;25.90;68.70;;;;;;4951266;29;20586;-75
2023/06/21 06:05:55;;;;;;;9.33;7.97;;;26.10;68.80;;;;;;4933927;29;20169;-76
2023/06/21 06:08:21;;;;;;;11.17;8.47;;;26.30;67.50;;;;;;4967745;29;20173;-77
2023/06/21 06:10:48;;;;;;;13.17;7.07;;;26.40;65.60;;;;;;4946797;29;20221;-75
2023/06/21 06:13:13;;;;;;;7.40;6.70;;;26.60;65.60;;;;;;4944812;29;20190;-75
2023/06/21 06:15:39;;;;;;;8.90;7.23;;;26.70;64.10;;;;;;4954377;29;20515;-74
2023/06/21 06:18:05;;;;;;;9.20;6.90;;;27.00;62.80;;;;;;4951099;29;20189;-77
2023/06/21 06:20:30;;;;;;;7.40;6.20;;;27.20;61.80;;;;;;4951759;28;20580;-75
2023/06/21 06:22:56;;;;;;;7.53;6.80;;;27.30;61.00;;;;;;4939565;29;20228;-77
2023/06/21 06:25:22;;;;;;;7.93;7.13;;;27.40;60.00;;;;;;4945854;29;20198;-77
2023/06/21 06:27:47;;;;;;;6.53;5.73;;;27.50;59.60;;;;;;4955714;29;20188;-75
2023/06/21 06:30:13;;;;;;;8.47;6.20;;;27.70;59.20;;;;;;4953088;29;20208;-74
2023/06/21 06:32:39;;;;;;;7.43;6.73;;;28.00;58.70;;;;;;4938724;29;20181;-75
2023/06/21 06:35:06;;;;;;;7.00;6.07;;;28.10;58.00;;;;;;4940496;29;20276;-75
2023/06/21 06:37:32;;;;;;;7.10;6.50;;;28.20;57.60;;;;;;4920743;29;20178;-76
2023/06/21 06:39:57;;;;;;;7.80;7.00;;;28.30;57.40;;;;;;4952637;29;20928;-76
2023/06/21 06:42:23;;;;;;;7.77;7.17;;;28.20;57.00;;;;;;4955172;29;20488;-78
2023/06/21 06:44:50;;;;;;;10.00;7.10;;;28.20;57.20;;;;;;4943077;29;20188;-76
2023/06/21 06:47:16;;;;;;;9.00;7.53;;;28.20;57.20;;;;;;4963453;29;20613;-77
2023/06/21 06:49:42;;;;;;;7.60;6.50;;;28.30;57.00;;;;;;4952811;29;20544;-77
2023/06/21 06:52:09;;;;;;;7.60;5.87;;;28.40;56.60;;;;;;4936290;29;20197;-75
2023/06/21 06:54:35;;;;;;;8.47;6.77;;;28.50;56.50;;;;;;4937611;29;20185;-76
2023/06/21 06:57:01;;;;;;;9.50;7.40;;;28.30;56.10;;;;;;4954133;29;20452;-76
2023/06/21 06:59:26;;;;;;;8.60;7.60;;;28.00;57.00;;;;;;4952895;29;20205;-79
2023/06/21 07:01:52;;;;;;;7.50;5.73;;;27.70;57.90;;;;;;4972863;28;20192;-76
2023/06/21 07:04:18;;;;;;;8.30;6.27;;;27.70;58.30;;;;;;4972514;28;20211;-77
2023/06/21 07:06:43;;;;;;;7.43;6.03;;;27.70;58.20;;;;;;4975351;28;20211;-77
2023/06/21 07:09:09;;;;;;;12.77;6.87;;;27.90;58.10;;;;;;4976475;28;20192;-75
2023/06/21 07:11:37;;;;;;;7.97;7.17;;;27.80;57.80;;;;;;4965948;28;20197;-77
2023/06/21 07:14:13;;;;;;;7.97;6.10;;;27.70;57.80;;;;;;4975224;28;20592;-78
2023/06/21 07:16:44;;;;;;;6.67;6.00;;;27.70;58.30;;;;;;4938282;29;20443;-76
2023/06/21 07:19:30;;;;;;;7.53;6.50;;;28.00;58.00;;;;;;4941008;29;20455;-77
2023/06/21 07:21:56;;;;;;;7.67;6.90;;;28.30;56.90;;;;;;4957421;29;20449;-76
2023/06/21 07:24:21;;;;;;;6.50;5.60;;;28.20;56.70;;;;;;4974738;28;20475;-77
2023/06/21 07:26:48;;;;;;;10.53;5.90;;;28.30;56.60;;;;;;4973427;29;20620;-76
2023/06/21 07:29:13;;;;;;;7.20;6.47;;;28.30;56.40;;;;;;4973657;28;20475;-75
2023/06/21 07:31:39;;;;;;;6.47;5.20;;;28.30;56.20;;;;;;4949062;29;20189;-77
2023/06/21 07:34:07;;;;;;;5.97;5.37;;;28.30;56.10;;;;;;4947170;29;20184;-79
2023/06/21 07:36:36;;;;;;;6.30;5.70;;;27.90;56.20;;;;;;4963121;29;20175;-76
2023/06/21 07:39:02;;;;;;;6.93;5.70;;;27.40;57.70;;;;;;4956187;28;20456;-78
2023/06/21 07:41:28;;;;;;;6.13;5.53;;;26.90;58.80;;;;;;4964907;28;20284;-79
2023/06/21 07:43:53;;;;;;;6.23;5.00;;;26.60;59.70;;;;;;4924727;29;20191;-77
2023/06/21 07:46:19;;;;;;;5.97;5.37;;;26.40;60.70;;;;;;4908443;29;20199;-78
2023/06/21 07:48:45;;;;;;;6.90;5.50;;;26.30;61.40;;;;;;4924759;29;20182;-78
2023/06/21 07:51:11;;;;;;;6.53;5.90;;;26.30;62.30;;;;;;4941110;29;20197;-78
2023/06/21 07:53:36;;;;;;;8.87;7.90;;;26.50;62.40;;;;;;4958437;29;20216;-77
2023/06/21 07:56:02;;;;;;;6.33;5.73;;;26.60;62.10;;;;;;4938087;29;20178;-78
2023/06/21 07:58:29;;;;;;;9.57;6.30;;;26.70;61.80;;;;;;4954329;29;20209;-78
2023/06/21 08:00:55;;;;;;;7.43;6.27;;;26.80;61.00;;;;;;4931175;29;20246;-77
2023/06/21 08:03:20;;;;;;;6.57;5.97;;;27.00;60.00;;;;;;4902091;29;20549;-78
2023/06/21 08:05:46;;;;;;;7.43;6.73;;;27.20;59.60;;;;;;4918928;29;20530;-78
2023/06/21 08:08:14;;;;;;;8.80;7.77;;;27.30;58.50;;;;;;4896827;29;20315;-78
2023/06/21 08:10:39;;;;;;;7.53;6.83;;;27.10;58.80;;;;;;4864709;29;20462;-75
2023/06/21 08:13:05;;;;;;;7.90;5.97;;;27.10;59.30;;;;;;4866274;29;20412;-78
2023/06/21 08:15:31;;;;;;;6.50;5.90;;;27.30;59.00;;;;;;4923545;29;20198;-78
2023/06/21 08:18:00;;;;;;;11.13;6.10;;;27.30;58.60;;;;;;4922309;29;20199;-77
2023/06/21 08:20:29;;;;;;;7.13;6.43;;;27.20;59.20;;;;;;4889540;29;20252;-77
2023/06/21 08:22:55;;;;;;;7.53;6.70;;;27.10;59.70;;;;;;4918869;29;20530;-77
2023/06/21 08:25:20;;;;;;;7.53;5.20;;;27.10;59.90;;;;;;4901468;29;20211;-80
2023/06/21 08:27:46;;;;;;;7.07;6.40;;;27.10;60.00;;;;;;4900037;29;20191;-76
2023/06/21 08:30:13;;;;;;;7.80;7.00;;;27.00;60.80;;;;;;4916459;29;20214;-74
2023/06/21 08:32:39;;;;;;;9.00;6.23;;;27.20;60.30;;;;;;4913804;29;20427;-78
2023/06/21 08:35:07;;;;;;;9.73;6.57;;;27.20;59.40;;;;;;4871517;29;20183;-78
2023/06/21 08:37:34;;;;;;;6.90;6.30;;;27.20;59.20;;;;;;4898451;29;20424;-78
2023/06/21 08:40:00;;;;;;;5.97;5.47;;;27.30;59.10;;;;;;4931298;29;20457;-75
2023/06/21 08:42:26;;;;;;;6.33;5.53;;;27.60;58.60;;;;;;4919127;29;20464;-74
2023/06/21 08:44:54;;;;;;;5.40;4.97;;;27.60;58.20;;;;;;4952439;29;20186;-75
2023/06/21 08:47:21;;;;;;;7.27;6.20;;;27.70;57.90;;;;;;4941371;29;20438;-77
2023/06/21 08:49:49;;;;;;;11.48;6.68;;;27.80;57.80;;;;;;4946464;29;20441;-76
2023/06/21 08:52:22;;;;;;;7.87;7.17;;;27.80;57.40;;;;;;4934600;29;20178;-76
2023/06/21 08:55:05;;;;;;;7.70;6.90;;;27.80;56.70;;;;;;4931765;29;20436;-75
2023/06/21 08:57:37;;;;;;;8.13;7.43;;;27.90;56.90;;;;;;4953236;29;20932;-77
2023/06/21 09:00:05;;;;;;;8.70;7.87;;;27.90;56.50;;;;;;4950786;29;20772;-76
2023/06/21 09:02:57;;;;;;;8.53;7.73;;;28.00;55.80;;;;;;4942737;29;20508;-77
2023/06/21 09:05:44;;;;;;;8.10;7.50;;;28.10;54.80;;;;;;4965597;29;20409;-74
2023/06/21 09:08:10;;;;;;;9.27;8.43;;;27.80;55.40;;;;;;4933815;29;20449;-76
2023/06/21 09:10:38;;;;;;;8.67;7.77;;;27.90;55.60;;;;;;4948393;29;20537;-74
2023/06/21 09:13:06;;;;;;;8.50;7.27;;;27.90;55.10;;;;;;4963253;29;20421;-75
2023/06/21 09:15:32;;;;;;;7.50;6.80;;;28.00;55.20;;;;;;4956021;29;20464;-75
2023/06/21 09:17:59;;;;;;;7.93;7.13;;;28.30;55.00;;;;;;4942997;29;20452;-80
2023/06/21 09:20:30;;;;;;;7.83;6.93;;;28.30;55.10;;;;;;4921700;29;20450;-79
2023/06/21 09:22:57;;;;;;;8.20;7.17;;;28.20;55.40;;;;;;4924967;29;20752;-80
2023/06/21 09:25:23;;;;;;;8.87;8.03;;;28.00;56.10;;;;;;4959782;29;20507;-79
2023/06/21 09:27:49;;;;;;;8.00;7.13;;;27.80;56.60;;;;;;4943008;29;20404;-80
2023/06/21 09:30:19;;;;;;;7.83;6.97;;;27.70;56.50;;;;;;4900648;29;20520;-79
2023/06/21 09:32:45;;;;;;;9.23;7.73;;;27.50;57.10;;;;;;4868215;29;20492;-79
2023/06/21 09:35:13;;;;;;;7.73;7.13;;;27.50;57.60;;;;;;4883142;29;20456;-76
2023/06/21 09:37:39;;;;;;;9.20;8.13;;;27.50;58.00;;;;;;4893440;29;20442;-75
2023/06/21 09:40:05;;;;;;;8.80;7.17;;;27.40;58.60;;;;;;4894456;29;20467;-76
2023/06/21 09:42:34;;;;;;;8.00;7.30;;;27.70;58.50;;;;;;4909134;29;20539;-76
2023/06/21 09:45:00;;;;;;;11.37;9.53;;;28.10;57.60;;;;;;4897282;29;20929;-75
2023/06/21 09:47:30;;;;;;;7.40;6.80;;;28.30;56.10;;;;;;4896253;29;20461;-77
2023/06/21 09:49:56;;;;;;;8.97;7.67;;;28.20;55.50;;;;;;4926690;29;20573;-76
2023/06/21 09:52:22;;;;;;;8.83;7.53;;;28.20;55.50;;;;;;4926593;29;20424;-73
2023/06/21 09:54:50;;;;;;;8.50;7.80;;;28.10;55.60;;;;;;4878226;29;20416;-76
2023/06/21 09:57:16;;;;;;;10.60;8.90;;;27.90;56.40;;;;;;4918912;29;20466;-75
2023/06/21 09:59:47;;;;;;;9.93;8.77;;;27.70;57.10;;;;;;4932636;29;20476;-78
2023/06/21 10:02:13;;;;;;;11.73;9.13;;;27.60;57.70;;;;;;4950661;29;20226;-78
2023/06/21 10:04:42;;;;;;;7.93;7.23;;;27.50;57.40;;;;;;4972379;29;20935;-78
2023/06/21 10:07:08;;;;;;;8.37;7.67;;;27.60;57.70;;;;;;4972113;28;20192;-76
2023/06/21 10:09:37;;;;;;;9.60;8.17;;;27.70;57.20;;;;;;4970136;28;20716;-78
2023/06/21 10:12:06;;;;;;;8.13;7.00;;;27.60;57.50;;;;;;4971442;28;20480;-75
2023/06/21 10:14:32;;;;;;;9.00;7.67;;;27.70;57.40;;;;;;4971598;29;20425;-77
2023/06/21 10:16:58;;;;;;;8.77;7.87;;;27.80;57.20;;;;;;4970968;29;20436;-79
2023/06/21 10:19:25;;;;;;;7.70;6.90;;;28.00;56.80;;;;;;4955693;29;20714;-79
2023/06/21 10:22:15;;;;;;;8.57;7.60;;;28.20;56.60;;;;;;4964865;29;20228;-78
2023/06/21 10:24:52;;;;;;;8.97;8.00;;;28.20;56.00;;;;;;4957789;28;20932;-78
2023/06/21 10:27:20;;;;;;;11.93;8.80;;;28.10;56.00;;;;;;5007546;28;20420;-79
2023/06/21 10:29:53;;;;;;;8.37;6.80;;;28.10;55.40;;;;;;4983885;28;20456;-75
2023/06/21 10:32:21;;;;;;;8.80;8.00;;;28.20;55.50;;;;;;4957689;29;20424;-77
2023/06/21 10:34:52;;;;;;;7.83;6.80;;;28.50;55.10;;;;;;4968948;29;21019;-76
2023/06/21 10:37:31;;;;;;;10.10;7.80;;;28.70;54.80;;;;;;4971590;29;20452;-78
2023/06/21 10:40:04;;;;;;;10.40;8.40;;;29.10;54.60;;;;;;4970794;28;20912;-76
2023/06/21 10:42:31;;;;;;;11.87;9.37;;;29.20;54.00;;;;;;4990944;28;20539;-77
2023/06/21 10:44:59;;;;;;;9.00;8.20;;;29.30;53.70;;;;;;4978341;28;20464;-77
2023/06/21 10:47:26;;;;;;;8.50;7.70;;;29.20;53.70;;;;;;4950253;29;20422;-77
2023/06/21 10:49:58;;;;;;;8.67;7.87;;;29.30;53.70;;;;;;4958993;28;20431;-74
2023/06/21 10:52:26;;;;;;;9.30;8.17;;;29.10;53.80;;;;;;4969834;28;20412;-78
2023/06/21 10:54:57;;;;;;;7.63;7.03;;;28.80;54.10;;;;;;4987792;28;20411;-77
2023/06/21 10:57:26;;;;;;;9.50;8.50;;;28.70;54.60;;;;;;4974999;28;20490;-75
2023/06/21 10:59:56;;;;;;;10.03;9.10;;;28.60;54.70;;;;;;4982961;28;20448;-76
2023/06/21 11:02:23;;;;;;;8.43;7.63;;;28.40;55.00;;;;;;4955314;29;20460;-77
2023/06/21 11:05:11;;;;;;;8.90;8.03;;;28.00;55.60;;;;;;4954562;29;20426;-73
2023/06/21 11:07:36;;;;;;;8.43;7.63;;;27.90;56.10;;;;;;4975827;28;20718;-78
2023/06/21 11:10:06;;;;;;;10.83;9.70;;;27.80;56.00;;;;;;4973830;28;20436;-75
2023/06/21 11:12:34;;;;;;;10.57;9.57;;;27.90;56.80;;;;;;4960589;29;20257;-78
2023/06/21 11:15:00;;;;;;;9.97;9.07;;;27.70;58.00;;;;;;4947985;28;20429;-76
2023/06/21 11:17:26;;;;;;;8.90;8.00;;;26.90;62.10;;;;;;4977442;28;20443;-77
2023/06/21 11:19:53;;;;;;;10.23;8.07;;;26.00;68.10;;;;;;4976452;28;20717;-77
2023/06/21 11:22:26;;;;;;;10.00;8.53;;;25.20;75.30;;;;;;4979174;28;20309;-78
2023/06/21 11:25:00;;;;;;;9.93;8.93;;;24.70;82.80;;;;;;4979306;28;20438;-78
2023/06/21 11:27:26;;;;;;;12.30;8.07;;;24.60;89.00;;;;;;4963267;28;20463;-76
2023/06/21 11:30:03;;;;;;;8.53;7.73;;;24.60;92.20;;;;;;4989697;28;20438;-76
2023/06/21 11:32:29;;;;;;;9.83;8.93;;;24.90;94.20;;;;;;4940807;29;20479;-77
2023/06/21 11:34:58;;;;;;;10.70;9.63;;;25.10;93.90;;;;;;4953669;29;20444;-76
2023/06/21 11:37:44;;;;;;;11.73;10.53;;;25.40;92.10;;;;;;4958244;29;20431;-75
2023/06/21 11:40:14;;;;;;;14.60;10.67;;;25.80;88.30;;;;;;4960262;28;20459;-75
2023/06/21 11:42:49;;;;;;;14.77;11.00;;;26.10;84.60;;;;;;4976283;28;20467;-78
2023/06/21 11:45:19;;;;;;;11.97;10.63;;;26.30;78.70;;;;;;4976424;28;20404;-74
2023/06/21 11:48:04;;;;;;;9.80;8.90;;;26.50;78.10;;;;;;4983044;28;20413;-77
2023/06/21 11:50:44;;;;;;;10.80;9.80;;;26.50;75.30;;;;;;4959023;28;20444;-75
2023/06/21 11:53:28;;;;;;;13.17;9.60;;;26.50;72.60;;;;;;4994119;28;20495;-76
2023/06/21 11:55:59;;;;;;;9.30;8.50;;;26.60;73.70;;;;;;4979306;28;20460;-77
2023/06/21 11:58:26;;;;;;;8.43;7.60;;;26.80;69.30;;;;;;4954198;29;20468;-75
2023/06/21 12:00:53;;;;;;;8.70;7.90;;;27.20;67.20;;;;;;4973883;28;20453;-77
2023/06/21 12:03:25;;;;;;;10.07;7.70;;;27.60;65.20;;;;;;4937611;28;20496;-75
2023/06/21 12:05:59;;;;;;;8.13;7.23;;;27.80;62.80;;;;;;4971240;29;20476;-76
2023/06/21 12:08:27;;;;;;;9.03;8.23;;;28.30;61.60;;;;;;4971725;28;20429;-75
2023/06/21 12:10:56;;;;;;;10.73;9.07;;;28.50;58.20;;;;;;4957627;28;20476;-76
2023/06/21 12:13:22;;;;;;;9.70;8.83;;;28.40;57.40;;;;;;4970199;28;20595;-75
2023/06/21 12:15:52;;;;;;;9.70;7.63;;;28.30;57.90;;;;;;4982615;28;20475;-73
2023/06/21 12:18:19;;;;;;;8.53;7.03;;;28.30;56.60;;;;;;4993524;28;20165;-78
2023/06/21 12:20:45;;;;;;;9.33;8.10;;;28.40;55.80;;;;;;4942560;28;20487;-76
2023/06/21 12:23:12;;;;;;;8.37;7.67;;;28.50;55.20;;;;;;4980676;28;20459;-79
2023/06/21 12:25:59;;;;;;;7.23;6.53;;;28.40;55.10;;;;;;4934336;28;20423;-78
2023/06/21 12:28:25;;;;;;;7.37;6.67;;;28.50;54.80;;;;;;4993923;28;20400;-77
2023/06/21 12:31:01;;;;;;;8.40;7.60;;;28.70;53.70;;;;;;4974285;28;20535;-78
2023/06/21 12:33:45;;;;;;;7.53;6.93;;;28.80;53.70;;;;;;4974969;28;20915;-77
2023/06/21 12:36:25;;;;;;;6.53;5.97;;;28.80;53.60;;;;;;4975074;28;20408;-77
2023/06/21 12:39:02;;;;;;;6.77;6.10;;;28.90;52.50;;;;;;4978996;28;20416;-78
2023/06/21 12:41:30;;;;;;;8.73;6.80;;;29.10;52.40;;;;;;4993652;28;20432;-77
2023/06/21 12:44:06;;;;;;;6.40;5.80;;;29.20;51.10;;;;;;4955353;28;20416;-79
2023/06/21 12:46:40;;;;;;;7.90;6.97;;;29.10;51.30;;;;;;4990859;28;20423;-79
2023/06/21 12:49:08;;;;;;;7.27;6.57;;;29.20;50.60;;;;;;4955894;28;20436;-75